Roosevelt, Minnesota
Current Conditions -  °F | °C
As of 2:13 AM on Friday 31 Oct 2014 (Local Time) from KRRT Reporting Station
Clear Clear  
Wind Chill: 16°   Ceiling: Unl
Heat Index: 23°   Visibility: 10mi
Dew Point: 19°   Wind: 6mph
Humidity: 86%   Direction: 330°NNW
Pressure: 30.56"   Gusts: NA
Location:  48.8°N, 95.1°W
Report Text: KRRT 310713Z AUTO 33005KT 10SM CLR M05/M07 A3056 RMK AO2
Loading
Personal Weather Stations






























Interactive Weather Map
Tropical Storm Tracking
New forecast layout! Learn more

10-Day Weather Forecast

Advertisements
Track Severe Weather on mobile